sensor_id;sensor_type;location;lat;lon;timestamp;P1;durP1;ratioP1;P2;durP2;ratioP2
35326;SDS011;21436;52.348;20.928;2023-08-17T00:01:19;21.63;;;14.75;;
35326;SDS011;21436;52.348;20.928;2023-08-17T00:03:46;18.52;;;14.85;;
35326;SDS011;21436;52.348;20.928;2023-08-17T00:06:14;19.15;;;14.65;;
35326;SDS011;21436;52.348;20.928;2023-08-17T00:08:42;23.63;;;14.70;;
35326;SDS011;21436;52.348;20.928;2023-08-17T00:11:09;18.50;;;14.10;;
35326;SDS011;21436;52.348;20.928;2023-08-17T00:13:37;22.00;;;14.65;;
35326;SDS011;21436;52.348;20.928;2023-08-17T00:16:04;18.55;;;14.88;;
35326;SDS011;21436;52.348;20.928;2023-08-17T00:18:32;18.48;;;14.70;;
35326;SDS011;21436;52.348;20.928;2023-08-17T00:21:00;23.60;;;15.27;;
35326;SDS011;21436;52.348;20.928;2023-08-17T00:23:27;18.95;;;15.43;;
35326;SDS011;21436;52.348;20.928;2023-08-17T00:25:55;19.73;;;14.70;;
35326;SDS011;21436;52.348;20.928;2023-08-17T00:28:23;19.90;;;14.90;;
35326;SDS011;21436;52.348;20.928;2023-08-17T00:30:50;18.35;;;14.70;;
35326;SDS011;21436;52.348;20.928;2023-08-17T00:33:18;19.70;;;14.30;;
35326;SDS011;21436;52.348;20.928;2023-08-17T00:35:46;20.70;;;15.77;;
35326;SDS011;21436;52.348;20.928;2023-08-17T00:38:14;18.23;;;15.05;;
35326;SDS011;21436;52.348;20.928;2023-08-17T00:40:41;19.33;;;13.88;;
35326;SDS011;21436;52.348;20.928;2023-08-17T00:43:09;20.05;;;15.40;;
35326;SDS011;21436;52.348;20.928;2023-08-17T00:45:36;22.15;;;14.45;;
35326;SDS011;21436;52.348;20.928;2023-08-17T00:48:04;16.70;;;13.77;;
35326;SDS011;21436;52.348;20.928;2023-08-17T00:50:35;19.75;;;14.50;;
35326;SDS011;21436;52.348;20.928;2023-08-17T00:53:04;18.90;;;14.18;;
35326;SDS011;21436;52.348;20.928;2023-08-17T00:55:32;18.00;;;14.75;;
35326;SDS011;21436;52.348;20.928;2023-08-17T00:58:01;21.60;;;14.88;;
35326;SDS011;21436;52.348;20.928;2023-08-17T01:00:28;17.48;;;13.95;;
35326;SDS011;21436;52.348;20.928;2023-08-17T01:02:57;20.50;;;15.10;;
35326;SDS011;21436;52.348;20.928;2023-08-17T01:05:25;16.58;;;14.57;;
35326;SDS011;21436;52.348;20.928;2023-08-17T01:07:55;19.90;;;15.05;;
35326;SDS011;21436;52.348;20.928;2023-08-17T01:10:23;23.27;;;14.85;;
35326;SDS011;21436;52.348;20.928;2023-08-17T01:15:37;21.77;;;15.57;;
35326;SDS011;21436;52.348;20.928;2023-08-17T01:21:00;19.23;;;14.60;;
35326;SDS011;21436;52.348;20.928;2023-08-17T01:23:30;20.00;;;14.95;;
35326;SDS011;21436;52.348;20.928;2023-08-17T01:25:57;20.00;;;14.23;;
35326;SDS011;21436;52.348;20.928;2023-08-17T01:28:25;20.08;;;15.02;;
35326;SDS011;21436;52.348;20.928;2023-08-17T01:30:55;19.85;;;14.63;;
35326;SDS011;21436;52.348;20.928;2023-08-17T01:33:29;19.13;;;14.60;;
35326;SDS011;21436;52.348;20.928;2023-08-17T01:38:52;21.95;;;15.80;;
35326;SDS011;21436;52.348;20.928;2023-08-17T01:41:23;19.05;;;15.90;;
35326;SDS011;21436;52.348;20.928;2023-08-17T01:43:51;21.55;;;15.63;;
35326;SDS011;21436;52.348;20.928;2023-08-17T01:46:19;23.33;;;16.38;;
35326;SDS011;21436;52.348;20.928;2023-08-17T01:48:47;24.55;;;15.52;;
35326;SDS011;21436;52.348;20.928;2023-08-17T01:51:18;20.67;;;15.15;;
35326;SDS011;21436;52.348;20.928;2023-08-17T01:53:49;21.08;;;15.90;;
35326;SDS011;21436;52.348;20.928;2023-08-17T01:56:17;21.13;;;15.23;;
35326;SDS011;21436;52.348;20.928;2023-08-17T01:58:45;21.38;;;15.65;;
35326;SDS011;21436;52.348;20.928;2023-08-17T02:01:12;24.85;;;15.55;;
35326;SDS011;21436;52.348;20.928;2023-08-17T02:03:43;24.65;;;15.55;;
35326;SDS011;21436;52.348;20.928;2023-08-17T02:06:10;19.13;;;15.52;;
35326;SDS011;21436;52.348;20.928;2023-08-17T02:08:41;19.50;;;15.55;;
35326;SDS011;21436;52.348;20.928;2023-08-17T02:11:08;17.83;;;15.00;;
35326;SDS011;21436;52.348;20.928;2023-08-17T02:13:38;23.02;;;15.25;;
35326;SDS011;21436;52.348;20.928;2023-08-17T02:16:05;19.42;;;15.18;;
35326;SDS011;21436;52.348;20.928;2023-08-17T02:18:33;18.73;;;14.88;;
35326;SDS011;21436;52.348;20.928;2023-08-17T02:21:02;21.05;;;16.08;;
35326;SDS011;21436;52.348;20.928;2023-08-17T02:23:29;20.35;;;15.98;;
35326;SDS011;21436;52.348;20.928;2023-08-17T02:25:57;20.85;;;16.15;;
35326;SDS011;21436;52.348;20.928;2023-08-17T02:28:25;19.13;;;15.75;;
35326;SDS011;21436;52.348;20.928;2023-08-17T02:30:56;18.60;;;15.63;;
35326;SDS011;21436;52.348;20.928;2023-08-17T02:33:27;21.88;;;15.07;;
35326;SDS011;21436;52.348;20.928;2023-08-17T02:35:54;20.83;;;16.45;;
35326;SDS011;21436;52.348;20.928;2023-08-17T02:38:22;22.20;;;15.65;;
35326;SDS011;21436;52.348;20.928;2023-08-17T02:40:50;22.13;;;15.82;;
35326;SDS011;21436;52.348;20.928;2023-08-17T02:43:17;20.13;;;15.07;;
35326;SDS011;21436;52.348;20.928;2023-08-17T02:45:45;23.30;;;15.52;;
35326;SDS011;21436;52.348;20.928;2023-08-17T02:48:12;19.20;;;14.23;;
35326;SDS011;21436;52.348;20.928;2023-08-17T02:50:40;22.77;;;15.57;;
35326;SDS011;21436;52.348;20.928;2023-08-17T02:53:08;19.48;;;15.75;;
35326;SDS011;21436;52.348;20.928;2023-08-17T02:55:35;20.38;;;14.35;;
35326;SDS011;21436;52.348;20.928;2023-08-17T02:58:03;20.38;;;15.32;;
35326;SDS011;21436;52.348;20.928;2023-08-17T03:00:30;21.27;;;14.75;;
35326;SDS011;21436;52.348;20.928;2023-08-17T03:02:58;22.20;;;15.65;;
35326;SDS011;21436;52.348;20.928;2023-08-17T03:05:25;23.92;;;16.10;;
35326;SDS011;21436;52.348;20.928;2023-08-17T03:07:54;18.88;;;15.10;;
35326;SDS011;21436;52.348;20.928;2023-08-17T03:10:21;22.60;;;15.63;;
35326;SDS011;21436;52.348;20.928;2023-08-17T03:12:50;25.90;;;15.95;;
35326;SDS011;21436;52.348;20.928;2023-08-17T03:15:18;18.95;;;15.45;;
35326;SDS011;21436;52.348;20.928;2023-08-17T03:17:45;20.30;;;16.08;;
35326;SDS011;21436;52.348;20.928;2023-08-17T03:20:13;23.85;;;16.15;;
35326;SDS011;21436;52.348;20.928;2023-08-17T03:22:41;22.83;;;15.55;;
35326;SDS011;21436;52.348;20.928;2023-08-17T03:25:08;26.30;;;16.35;;
35326;SDS011;21436;52.348;20.928;2023-08-17T03:27:37;19.75;;;15.18;;
35326;SDS011;21436;52.348;20.928;2023-08-17T03:30:05;19.73;;;15.35;;
35326;SDS011;21436;52.348;20.928;2023-08-17T03:32:33;19.15;;;15.30;;
35326;SDS011;21436;52.348;20.928;2023-08-17T03:35:01;22.23;;;15.38;;
35326;SDS011;21436;52.348;20.928;2023-08-17T03:37:28;19.50;;;15.55;;
35326;SDS011;21436;52.348;20.928;2023-08-17T03:39:56;19.70;;;15.85;;
35326;SDS011;21436;52.348;20.928;2023-08-17T03:42:23;21.02;;;15.55;;
35326;SDS011;21436;52.348;20.928;2023-08-17T03:44:51;21.40;;;16.38;;
35326;SDS011;21436;52.348;20.928;2023-08-17T03:47:19;19.02;;;15.27;;
35326;SDS011;21436;52.348;20.928;2023-08-17T03:49:47;19.75;;;15.32;;
35326;SDS011;21436;52.348;20.928;2023-08-17T03:52:14;23.77;;;16.50;;
35326;SDS011;21436;52.348;20.928;2023-08-17T03:54:42;22.15;;;16.50;;
35326;SDS011;21436;52.348;20.928;2023-08-17T03:57:09;24.50;;;15.93;;
35326;SDS011;21436;52.348;20.928;2023-08-17T03:59:37;21.30;;;15.80;;
35326;SDS011;21436;52.348;20.928;2023-08-17T04:02:04;24.58;;;16.83;;
35326;SDS011;21436;52.348;20.928;2023-08-17T04:04:32;20.98;;;15.93;;
35326;SDS011;21436;52.348;20.928;2023-08-17T04:07:00;19.42;;;16.02;;
35326;SDS011;21436;52.348;20.928;2023-08-17T04:09:28;21.70;;;16.75;;
35326;SDS011;21436;52.348;20.928;2023-08-17T04:11:56;22.80;;;16.25;;
35326;SDS011;21436;52.348;20.928;2023-08-17T04:14:24;24.58;;;16.67;;
35326;SDS011;21436;52.348;20.928;2023-08-17T04:16:54;25.98;;;16.73;;
35326;SDS011;21436;52.348;20.928;2023-08-17T04:19:23;22.38;;;15.80;;
35326;SDS011;21436;52.348;20.928;2023-08-17T04:21:52;23.38;;;16.35;;
35326;SDS011;21436;52.348;20.928;2023-08-17T04:24:19;23.13;;;16.02;;
35326;SDS011;21436;52.348;20.928;2023-08-17T04:26:47;24.65;;;15.43;;
35326;SDS011;21436;52.348;20.928;2023-08-17T04:29:14;21.40;;;16.05;;
35326;SDS011;21436;52.348;20.928;2023-08-17T04:31:42;23.08;;;15.27;;
35326;SDS011;21436;52.348;20.928;2023-08-17T04:34:11;24.65;;;16.33;;
35326;SDS011;21436;52.348;20.928;2023-08-17T04:36:40;26.92;;;16.27;;
35326;SDS011;21436;52.348;20.928;2023-08-17T04:39:07;24.70;;;16.08;;
35326;SDS011;21436;52.348;20.928;2023-08-17T04:41:36;23.80;;;15.57;;
35326;SDS011;21436;52.348;20.928;2023-08-17T04:44:07;22.27;;;15.65;;
35326;SDS011;21436;52.348;20.928;2023-08-17T04:46:35;24.90;;;16.67;;
35326;SDS011;21436;52.348;20.928;2023-08-17T04:49:03;21.83;;;15.70;;
35326;SDS011;21436;52.348;20.928;2023-08-17T04:51:31;22.27;;;15.55;;
35326;SDS011;21436;52.348;20.928;2023-08-17T04:53:58;21.52;;;15.52;;
35326;SDS011;21436;52.348;20.928;2023-08-17T04:56:26;19.08;;;14.98;;
35326;SDS011;21436;52.348;20.928;2023-08-17T04:58:54;22.42;;;15.10;;
35326;SDS011;21436;52.348;20.928;2023-08-17T05:01:22;21.70;;;14.85;;
35326;SDS011;21436;52.348;20.928;2023-08-17T05:03:50;18.88;;;15.18;;
35326;SDS011;21436;52.348;20.928;2023-08-17T05:06:19;21.25;;;14.73;;
35326;SDS011;21436;52.348;20.928;2023-08-17T05:08:46;20.98;;;15.57;;
35326;SDS011;21436;52.348;20.928;2023-08-17T05:11:14;16.30;;;14.48;;
35326;SDS011;21436;52.348;20.928;2023-08-17T05:13:43;23.13;;;15.30;;
35326;SDS011;21436;52.348;20.928;2023-08-17T05:16:11;26.33;;;14.48;;
35326;SDS011;21436;52.348;20.928;2023-08-17T05:18:38;19.45;;;14.48;;
35326;SDS011;21436;52.348;20.928;2023-08-17T05:21:07;19.65;;;13.80;;
35326;SDS011;21436;52.348;20.928;2023-08-17T05:23:34;23.83;;;14.27;;
35326;SDS011;21436;52.348;20.928;2023-08-17T05:26:02;16.63;;;14.05;;
35326;SDS011;21436;52.348;20.928;2023-08-17T05:28:30;18.33;;;13.60;;
35326;SDS011;21436;52.348;20.928;2023-08-17T05:31:08;19.30;;;13.23;;
35326;SDS011;21436;52.348;20.928;2023-08-17T05:33:39;16.95;;;12.70;;
35326;SDS011;21436;52.348;20.928;2023-08-17T05:36:10;17.40;;;12.32;;
35326;SDS011;21436;52.348;20.928;2023-08-17T05:38:38;19.70;;;11.48;;
35326;SDS011;21436;52.348;20.928;2023-08-17T05:41:05;23.58;;;12.43;;
35326;SDS011;21436;52.348;20.928;2023-08-17T05:43:33;17.50;;;12.25;;
35326;SDS011;21436;52.348;20.928;2023-08-17T05:46:00;20.17;;;11.65;;
35326;SDS011;21436;52.348;20.928;2023-08-17T05:48:28;17.52;;;11.88;;
35326;SDS011;21436;52.348;20.928;2023-08-17T05:50:56;16.10;;;11.60;;
35326;SDS011;21436;52.348;20.928;2023-08-17T05:53:23;16.42;;;11.65;;
35326;SDS011;21436;52.348;20.928;2023-08-17T05:55:51;19.55;;;10.95;;
35326;SDS011;21436;52.348;20.928;2023-08-17T05:58:18;14.95;;;11.50;;
35326;SDS011;21436;52.348;20.928;2023-08-17T06:00:46;12.93;;;10.82;;
35326;SDS011;21436;52.348;20.928;2023-08-17T06:03:13;18.10;;;12.50;;
35326;SDS011;21436;52.348;20.928;2023-08-17T06:05:41;21.73;;;12.48;;
35326;SDS011;21436;52.348;20.928;2023-08-17T06:08:10;19.75;;;11.90;;
35326;SDS011;21436;52.348;20.928;2023-08-17T06:10:37;17.90;;;12.23;;
35326;SDS011;21436;52.348;20.928;2023-08-17T06:13:05;16.02;;;11.85;;
35326;SDS011;21436;52.348;20.928;2023-08-17T06:15:32;19.30;;;11.18;;
35326;SDS011;21436;52.348;20.928;2023-08-17T06:18:00;14.30;;;11.00;;
35326;SDS011;21436;52.348;20.928;2023-08-17T06:20:28;14.75;;;11.02;;
35326;SDS011;21436;52.348;20.928;2023-08-17T06:22:55;14.48;;;11.23;;
35326;SDS011;21436;52.348;20.928;2023-08-17T06:25:24;13.85;;;10.52;;
35326;SDS011;21436;52.348;20.928;2023-08-17T06:27:52;17.25;;;10.85;;
35326;SDS011;21436;52.348;20.928;2023-08-17T06:30:20;19.67;;;10.68;;
35326;SDS011;21436;52.348;20.928;2023-08-17T06:32:48;15.88;;;10.65;;
35326;SDS011;21436;52.348;20.928;2023-08-17T06:35:18;17.45;;;10.25;;
35326;SDS011;21436;52.348;20.928;2023-08-17T06:37:45;15.20;;;9.95;;
35326;SDS011;21436;52.348;20.928;2023-08-17T06:40:13;17.27;;;9.35;;
35326;SDS011;21436;52.348;20.928;2023-08-17T06:42:40;14.15;;;9.55;;
35326;SDS011;21436;52.348;20.928;2023-08-17T06:45:08;26.13;;;9.68;;
35326;SDS011;21436;52.348;20.928;2023-08-17T06:47:36;25.13;;;9.95;;
35326;SDS011;21436;52.348;20.928;2023-08-17T06:50:05;16.98;;;9.20;;
35326;SDS011;21436;52.348;20.928;2023-08-17T06:52:32;13.48;;;8.85;;
35326;SDS011;21436;52.348;20.928;2023-08-17T06:55:02;17.42;;;8.82;;
35326;SDS011;21436;52.348;20.928;2023-08-17T06:57:29;15.88;;;8.77;;
35326;SDS011;21436;52.348;20.928;2023-08-17T06:59:57;28.63;;;8.80;;
35326;SDS011;21436;52.348;20.928;2023-08-17T07:02:25;20.52;;;9.00;;
35326;SDS011;21436;52.348;20.928;2023-08-17T07:05:05;13.85;;;8.73;;
35326;SDS011;21436;52.348;20.928;2023-08-17T07:07:33;16.60;;;8.75;;
35326;SDS011;21436;52.348;20.928;2023-08-17T07:10:01;16.25;;;8.38;;
35326;SDS011;21436;52.348;20.928;2023-08-17T07:12:28;21.13;;;8.63;;
35326;SDS011;21436;52.348;20.928;2023-08-17T07:14:57;14.85;;;9.18;;
35326;SDS011;21436;52.348;20.928;2023-08-17T07:17:24;35.35;;;10.30;;
35326;SDS011;21436;52.348;20.928;2023-08-17T07:19:53;32.53;;;9.48;;
35326;SDS011;21436;52.348;20.928;2023-08-17T07:22:40;15.55;;;7.75;;
35326;SDS011;21436;52.348;20.928;2023-08-17T07:25:08;12.55;;;7.72;;
35326;SDS011;21436;52.348;20.928;2023-08-17T07:27:36;13.93;;;7.40;;
35326;SDS011;21436;52.348;20.928;2023-08-17T07:30:04;11.75;;;7.53;;
35326;SDS011;21436;52.348;20.928;2023-08-17T07:32:31;10.23;;;7.55;;
35326;SDS011;21436;52.348;20.928;2023-08-17T07:35:00;14.27;;;7.25;;
35326;SDS011;21436;52.348;20.928;2023-08-17T07:37:27;14.38;;;7.10;;
35326;SDS011;21436;52.348;20.928;2023-08-17T07:40:00;12.18;;;6.55;;
35326;SDS011;21436;52.348;20.928;2023-08-17T07:42:30;12.18;;;7.20;;
35326;SDS011;21436;52.348;20.928;2023-08-17T07:44:58;9.10;;;7.55;;
35326;SDS011;21436;52.348;20.928;2023-08-17T07:47:26;11.18;;;7.25;;
35326;SDS011;21436;52.348;20.928;2023-08-17T07:49:54;10.25;;;7.30;;
35326;SDS011;21436;52.348;20.928;2023-08-17T07:52:21;13.18;;;7.43;;
35326;SDS011;21436;52.348;20.928;2023-08-17T07:54:49;12.43;;;7.10;;
35326;SDS011;21436;52.348;20.928;2023-08-17T07:57:17;15.75;;;7.47;;
35326;SDS011;21436;52.348;20.928;2023-08-17T07:59:44;11.43;;;7.78;;
35326;SDS011;21436;52.348;20.928;2023-08-17T08:02:12;12.73;;;7.13;;
35326;SDS011;21436;52.348;20.928;2023-08-17T08:04:40;23.60;;;8.43;;
35326;SDS011;21436;52.348;20.928;2023-08-17T08:07:07;9.27;;;7.32;;
35326;SDS011;21436;52.348;20.928;2023-08-17T08:09:35;12.40;;;7.80;;
35326;SDS011;21436;52.348;20.928;2023-08-17T08:12:03;9.88;;;7.35;;
35326;SDS011;21436;52.348;20.928;2023-08-17T08:14:34;12.45;;;8.10;;
35326;SDS011;21436;52.348;20.928;2023-08-17T08:17:02;10.38;;;8.00;;
35326;SDS011;21436;52.348;20.928;2023-08-17T08:19:29;8.85;;;7.22;;
35326;SDS011;21436;52.348;20.928;2023-08-17T08:21:57;10.75;;;7.43;;
35326;SDS011;21436;52.348;20.928;2023-08-17T08:24:25;22.00;;;8.80;;
35326;SDS011;21436;52.348;20.928;2023-08-17T08:27:01;10.60;;;8.07;;
35326;SDS011;21436;52.348;20.928;2023-08-17T08:29:31;14.35;;;8.20;;
35326;SDS011;21436;52.348;20.928;2023-08-17T08:31:58;10.57;;;8.25;;
35326;SDS011;21436;52.348;20.928;2023-08-17T08:34:27;11.60;;;7.53;;
35326;SDS011;21436;52.348;20.928;2023-08-17T08:36:54;12.90;;;8.00;;
35326;SDS011;21436;52.348;20.928;2023-08-17T08:39:30;12.63;;;8.35;;
35326;SDS011;21436;52.348;20.928;2023-08-17T08:41:57;11.93;;;8.45;;
35326;SDS011;21436;52.348;20.928;2023-08-17T08:44:26;10.43;;;8.00;;
35326;SDS011;21436;52.348;20.928;2023-08-17T08:46:54;15.70;;;8.45;;
35326;SDS011;21436;52.348;20.928;2023-08-17T08:49:24;10.90;;;8.20;;
35326;SDS011;21436;52.348;20.928;2023-08-17T08:51:52;13.15;;;8.75;;
35326;SDS011;21436;52.348;20.928;2023-08-17T08:54:21;16.13;;;8.40;;
35326;SDS011;21436;52.348;20.928;2023-08-17T08:57:01;11.27;;;8.13;;
35326;SDS011;21436;52.348;20.928;2023-08-17T08:59:31;8.55;;;7.68;;
35326;SDS011;21436;52.348;20.928;2023-08-17T09:02:00;12.10;;;8.68;;
35326;SDS011;21436;52.348;20.928;2023-08-17T09:04:30;16.30;;;9.35;;
35326;SDS011;21436;52.348;20.928;2023-08-17T09:06:57;21.90;;;9.15;;
35326;SDS011;21436;52.348;20.928;2023-08-17T09:09:25;28.30;;;9.20;;
35326;SDS011;21436;52.348;20.928;2023-08-17T09:11:58;14.45;;;9.32;;
35326;SDS011;21436;52.348;20.928;2023-08-17T09:14:27;10.68;;;9.07;;
35326;SDS011;21436;52.348;20.928;2023-08-17T09:16:54;14.20;;;8.65;;
35326;SDS011;21436;52.348;20.928;2023-08-17T09:19:23;11.13;;;9.32;;
35326;SDS011;21436;52.348;20.928;2023-08-17T09:21:51;21.73;;;10.23;;
35326;SDS011;21436;52.348;20.928;2023-08-17T09:24:22;18.88;;;10.05;;
35326;SDS011;21436;52.348;20.928;2023-08-17T09:26:49;16.77;;;9.50;;
35326;SDS011;21436;52.348;20.928;2023-08-17T09:29:18;16.90;;;9.88;;
35326;SDS011;21436;52.348;20.928;2023-08-17T09:31:46;17.08;;;9.43;;
35326;SDS011;21436;52.348;20.928;2023-08-17T09:34:14;10.82;;;9.05;;
35326;SDS011;21436;52.348;20.928;2023-08-17T09:36:45;15.63;;;9.68;;
35326;SDS011;21436;52.348;20.928;2023-08-17T09:39:17;15.82;;;8.75;;
35326;SDS011;21436;52.348;20.928;2023-08-17T09:41:45;13.25;;;8.48;;
35326;SDS011;21436;52.348;20.928;2023-08-17T09:44:13;13.27;;;8.63;;
35326;SDS011;21436;52.348;20.928;2023-08-17T09:46:43;11.82;;;8.68;;
35326;SDS011;21436;52.348;20.928;2023-08-17T09:49:11;16.92;;;8.43;;
35326;SDS011;21436;52.348;20.928;2023-08-17T09:51:42;15.23;;;9.27;;
35326;SDS011;21436;52.348;20.928;2023-08-17T09:54:19;14.20;;;9.60;;
35326;SDS011;21436;52.348;20.928;2023-08-17T09:56:52;13.80;;;8.50;;
35326;SDS011;21436;52.348;20.928;2023-08-17T09:59:20;14.48;;;8.05;;
35326;SDS011;21436;52.348;20.928;2023-08-17T10:01:49;12.60;;;8.70;;
35326;SDS011;21436;52.348;20.928;2023-08-17T10:04:23;10.73;;;8.80;;
35326;SDS011;21436;52.348;20.928;2023-08-17T10:06:52;15.25;;;8.27;;
35326;SDS011;21436;52.348;20.928;2023-08-17T10:09:25;30.55;;;9.02;;
35326;SDS011;21436;52.348;20.928;2023-08-17T10:11:57;16.95;;;9.07;;
35326;SDS011;21436;52.348;20.928;2023-08-17T10:17:01;14.38;;;8.65;;
35326;SDS011;21436;52.348;20.928;2023-08-17T10:25:02;12.10;;;8.05;;
35326;SDS011;21436;52.348;20.928;2023-08-17T10:27:30;13.90;;;8.40;;
35326;SDS011;21436;52.348;20.928;2023-08-17T10:30:00;10.40;;;8.60;;
35326;SDS011;21436;52.348;20.928;2023-08-17T10:32:28;11.32;;;8.45;;
35326;SDS011;21436;52.348;20.928;2023-08-17T10:34:57;10.75;;;8.52;;
35326;SDS011;21436;52.348;20.928;2023-08-17T10:37:25;13.13;;;7.93;;
35326;SDS011;21436;52.348;20.928;2023-08-17T10:39:53;12.77;;;7.60;;
35326;SDS011;21436;52.348;20.928;2023-08-17T10:42:33;14.93;;;7.53;;
35326;SDS011;21436;52.348;20.928;2023-08-17T10:47:51;8.98;;;6.50;;
35326;SDS011;21436;52.348;20.928;2023-08-17T10:51:01;13.35;;;7.28;;
35326;SDS011;21436;52.348;20.928;2023-08-17T10:53:33;78.97;;;19.67;;
35326;SDS011;21436;52.348;20.928;2023-08-17T10:56:03;16.42;;;7.93;;
35326;SDS011;21436;52.348;20.928;2023-08-17T10:58:33;22.27;;;6.88;;
35326;SDS011;21436;52.348;20.928;2023-08-17T11:01:02;9.85;;;6.03;;
35326;SDS011;21436;52.348;20.928;2023-08-17T11:03:30;10.68;;;6.32;;
35326;SDS011;21436;52.348;20.928;2023-08-17T11:05:58;9.73;;;6.57;;
35326;SDS011;21436;52.348;20.928;2023-08-17T11:08:56;5.93;;;4.07;;
35326;SDS011;21436;52.348;20.928;2023-08-17T11:11:24;6.82;;;4.25;;
35326;SDS011;21436;52.348;20.928;2023-08-17T11:13:58;7.93;;;4.13;;
35326;SDS011;21436;52.348;20.928;2023-08-17T11:16:26;8.55;;;3.90;;
35326;SDS011;21436;52.348;20.928;2023-08-17T11:18:55;6.43;;;4.70;;
35326;SDS011;21436;52.348;20.928;2023-08-17T11:21:26;12.88;;;6.00;;
35326;SDS011;21436;52.348;20.928;2023-08-17T11:23:55;7.60;;;5.63;;
35326;SDS011;21436;52.348;20.928;2023-08-17T11:26:23;7.30;;;4.45;;
35326;SDS011;21436;52.348;20.928;2023-08-17T11:28:50;9.57;;;4.95;;
35326;SDS011;21436;52.348;20.928;2023-08-17T11:31:19;9.88;;;5.15;;
35326;SDS011;21436;52.348;20.928;2023-08-17T11:33:46;10.50;;;5.55;;
35326;SDS011;21436;52.348;20.928;2023-08-17T11:36:14;11.52;;;5.57;;
35326;SDS011;21436;52.348;20.928;2023-08-17T11:38:42;11.13;;;5.60;;
35326;SDS011;21436;52.348;20.928;2023-08-17T11:41:11;6.95;;;4.93;;
35326;SDS011;21436;52.348;20.928;2023-08-17T11:43:42;7.40;;;4.72;;
35326;SDS011;21436;52.348;20.928;2023-08-17T11:46:11;6.25;;;4.50;;
35326;SDS011;21436;52.348;20.928;2023-08-17T11:48:39;8.68;;;5.30;;
35326;SDS011;21436;52.348;20.928;2023-08-17T11:51:07;8.07;;;5.07;;
35326;SDS011;21436;52.348;20.928;2023-08-17T11:53:35;10.07;;;5.03;;
35326;SDS011;21436;52.348;20.928;2023-08-17T11:56:03;7.32;;;4.97;;
35326;SDS011;21436;52.348;20.928;2023-08-17T12:01:04;23.98;;;5.40;;
35326;SDS011;21436;52.348;20.928;2023-08-17T12:03:36;8.23;;;4.55;;
35326;SDS011;21436;52.348;20.928;2023-08-17T12:06:04;57.50;;;6.93;;
35326;SDS011;21436;52.348;20.928;2023-08-17T12:08:32;7.90;;;4.13;;
35326;SDS011;21436;52.348;20.928;2023-08-17T12:11:02;4.72;;;3.97;;
35326;SDS011;21436;52.348;20.928;2023-08-17T12:13:30;10.88;;;5.35;;
35326;SDS011;21436;52.348;20.928;2023-08-17T12:15:59;5.45;;;3.38;;
35326;SDS011;21436;52.348;20.928;2023-08-17T12:18:27;8.95;;;4.45;;
35326;SDS011;21436;52.348;20.928;2023-08-17T12:20:55;4.20;;;3.45;;
35326;SDS011;21436;52.348;20.928;2023-08-17T12:23:23;8.18;;;3.78;;
35326;SDS011;21436;52.348;20.928;2023-08-17T12:25:55;8.38;;;4.15;;
35326;SDS011;21436;52.348;20.928;2023-08-17T12:28:25;6.15;;;3.88;;
35326;SDS011;21436;52.348;20.928;2023-08-17T12:31:00;11.07;;;3.83;;
35326;SDS011;21436;52.348;20.928;2023-08-17T12:33:29;6.53;;;3.97;;
35326;SDS011;21436;52.348;20.928;2023-08-17T12:35:57;5.95;;;3.80;;
35326;SDS011;21436;52.348;20.928;2023-08-17T12:38:24;4.85;;;4.00;;
35326;SDS011;21436;52.348;20.928;2023-08-17T12:40:53;5.88;;;3.92;;
35326;SDS011;21436;52.348;20.928;2023-08-17T12:43:20;8.05;;;3.53;;
35326;SDS011;21436;52.348;20.928;2023-08-17T12:45:48;8.88;;;3.97;;
35326;SDS011;21436;52.348;20.928;2023-08-17T12:48:16;4.97;;;3.63;;
35326;SDS011;21436;52.348;20.928;2023-08-17T12:50:44;4.85;;;4.10;;
35326;SDS011;21436;52.348;20.928;2023-08-17T12:53:12;5.28;;;4.05;;
35326;SDS011;21436;52.348;20.928;2023-08-17T12:55:39;12.63;;;5.03;;
35326;SDS011;21436;52.348;20.928;2023-08-17T12:58:09;7.80;;;3.85;;
35326;SDS011;21436;52.348;20.928;2023-08-17T13:00:37;4.78;;;3.55;;
35326;SDS011;21436;52.348;20.928;2023-08-17T13:03:05;6.82;;;3.72;;
35326;SDS011;21436;52.348;20.928;2023-08-17T13:05:35;5.97;;;3.78;;
35326;SDS011;21436;52.348;20.928;2023-08-17T13:08:02;11.75;;;3.70;;
35326;SDS011;21436;52.348;20.928;2023-08-17T13:10:30;4.07;;;3.40;;
35326;SDS011;21436;52.348;20.928;2023-08-17T13:12:57;6.55;;;3.67;;
35326;SDS011;21436;52.348;20.928;2023-08-17T13:15:26;4.30;;;3.20;;
35326;SDS011;21436;52.348;20.928;2023-08-17T13:17:54;5.32;;;3.47;;
35326;SDS011;21436;52.348;20.928;2023-08-17T13:20:21;7.75;;;4.18;;
35326;SDS011;21436;52.348;20.928;2023-08-17T13:22:49;10.93;;;3.72;;
35326;SDS011;21436;52.348;20.928;2023-08-17T13:25:17;11.07;;;3.92;;
35326;SDS011;21436;52.348;20.928;2023-08-17T13:27:44;3.95;;;3.30;;
35326;SDS011;21436;52.348;20.928;2023-08-17T13:30:12;6.85;;;3.88;;
35326;SDS011;21436;52.348;20.928;2023-08-17T13:32:39;4.55;;;3.55;;
35326;SDS011;21436;52.348;20.928;2023-08-17T13:35:11;6.40;;;4.15;;
35326;SDS011;21436;52.348;20.928;2023-08-17T13:37:39;6.32;;;3.78;;
35326;SDS011;21436;52.348;20.928;2023-08-17T13:40:08;6.72;;;4.18;;
35326;SDS011;21436;52.348;20.928;2023-08-17T13:42:35;5.97;;;4.20;;
35326;SDS011;21436;52.348;20.928;2023-08-17T13:45:04;6.43;;;3.90;;
35326;SDS011;21436;52.348;20.928;2023-08-17T13:47:32;6.18;;;4.03;;
35326;SDS011;21436;52.348;20.928;2023-08-17T13:49:59;10.85;;;4.03;;
35326;SDS011;21436;52.348;20.928;2023-08-17T13:52:27;6.40;;;3.65;;
35326;SDS011;21436;52.348;20.928;2023-08-17T13:54:55;7.03;;;4.05;;
35326;SDS011;21436;52.348;20.928;2023-08-17T13:57:23;6.85;;;4.07;;
35326;SDS011;21436;52.348;20.928;2023-08-17T13:59:51;9.43;;;4.22;;
35326;SDS011;21436;52.348;20.928;2023-08-17T14:02:18;7.03;;;3.80;;
35326;SDS011;21436;52.348;20.928;2023-08-17T14:04:47;10.85;;;4.40;;
35326;SDS011;21436;52.348;20.928;2023-08-17T14:07:15;7.13;;;3.38;;
35326;SDS011;21436;52.348;20.928;2023-08-17T14:09:43;7.10;;;3.80;;
35326;SDS011;21436;52.348;20.928;2023-08-17T14:12:30;10.38;;;3.92;;
35326;SDS011;21436;52.348;20.928;2023-08-17T14:14:58;16.70;;;4.60;;
35326;SDS011;21436;52.348;20.928;2023-08-17T14:17:25;5.95;;;3.75;;
35326;SDS011;21436;52.348;20.928;2023-08-17T14:19:53;4.30;;;3.63;;
35326;SDS011;21436;52.348;20.928;2023-08-17T14:22:21;6.93;;;3.63;;
35326;SDS011;21436;52.348;20.928;2023-08-17T14:24:49;62.55;;;6.22;;
35326;SDS011;21436;52.348;20.928;2023-08-17T14:27:17;7.38;;;4.10;;
35326;SDS011;21436;52.348;20.928;2023-08-17T14:29:44;7.50;;;4.30;;
35326;SDS011;21436;52.348;20.928;2023-08-17T14:32:13;7.85;;;4.07;;
35326;SDS011;21436;52.348;20.928;2023-08-17T14:34:41;6.60;;;4.57;;
35326;SDS011;21436;52.348;20.928;2023-08-17T14:37:09;7.88;;;4.10;;
35326;SDS011;21436;52.348;20.928;2023-08-17T14:39:36;19.90;;;5.03;;
35326;SDS011;21436;52.348;20.928;2023-08-17T14:42:04;27.58;;;5.97;;
35326;SDS011;21436;52.348;20.928;2023-08-17T14:44:32;10.63;;;4.40;;
35326;SDS011;21436;52.348;20.928;2023-08-17T14:47:00;14.07;;;4.60;;
35326;SDS011;21436;52.348;20.928;2023-08-17T14:49:27;11.38;;;4.50;;